Lucerne Valley, CA (92356)

3:19 PM PST on February 27, 2017 (GMT -0800)
MF0119 | | Change Station

Elev 3034 ft 34.44 °N, 116.98 °W | Updated 14 minutes ago

Rain
Rain
51.0 °F
Feels Like 51.0 °F
N
16.0
Wind Variable Wind from WNW

Today
High -- | Low -- °F
--% Chance of Precip.
Yesterday
High -- | Low -- °F
Precip. -- in
Pressure 29.80 in
Visibility 10.0 miles
Clouds Scattered Clouds 6500 ft
Scattered Clouds 10000 ft
Dew Point 42 °F
Humidity 71%
Rainfall 0.01 in
Snow Depth Not available.
6:18 AM 5:42 PM
New Moon, 2% visible
METAR KVCV 272315Z AUTO 28008KT 10SM SCT065 SCT100 09/03 A2980 RMK AO2
Pressure 29.80 in
Visibility 10.0 miles
Clouds Scattered Clouds 6500 ft
Scattered Clouds 10000 ft
Dew Point 42 °F
Humidity 71%
Rainfall 0.01 in
Snow Depth Not available.
6:18 AM 5:42 PM
New Moon, 2% visible
METAR KVCV 272315Z AUTO 28008KT 10SM SCT065 SCT100 09/03 A2980 RMK AO2

Get Your Daily Forecast Email!

Thanks for signing up!

Be on the lookout for a verification email in your inbox.

You'll start receiving the daily forecast at 8 AM.

×

10-Day Weather Forecast

Almanac

Astronomy

Feb. 27, 2017 Rise Set
Actual Time
Civil Twilight
Nautical Twilight
Astronomical Twilight
Moon
Length of Visible Light
Length of Day
Tomorrow will be .
, % of the Moon is Illuminated

Today's Extremes

State Highs State Lows

Community

WunderPhotos

Upload Photos

1,962,540 photos uploaded!

WunderBlog® & News

Nearby

Air Quality

  Air Quality AQ Index Pollutant
Not available.

Snow Depth

Station Depth Elevation

Earthquake Activity

City Distance Mag. Time & Date
Minimum magnitude displayed is 2.5.

Coastal Water Temperatures

Place Temperature

Stations

Nearby Weather Stations

Station Location Temp. Windchill Dew Point Humidity Wind Precip. Elev Updated Type
                   

Watches & Warnings

There are currently no watches in effect.